sensor_id;sensor_type;location;lat;lon;timestamp;temperature;humidity
21092;DHT22;10704;42.678;23.288;2022-07-05T00:01:14;21.90;97.90
21092;DHT22;10704;42.678;23.288;2022-07-05T00:03:39;21.70;99.90
21092;DHT22;10704;42.678;23.288;2022-07-05T00:06:05;21.70;99.90
21092;DHT22;10704;42.678;23.288;2022-07-05T00:16:06;21.60;96.40
21092;DHT22;10704;42.678;23.288;2022-07-05T00:18:32;21.60;99.90
21092;DHT22;10704;42.678;23.288;2022-07-05T00:20:59;21.40;99.90
21092;DHT22;10704;42.678;23.288;2022-07-05T00:23:24;21.30;99.90
21092;DHT22;10704;42.678;23.288;2022-07-05T00:33:31;20.80;99.90
21092;DHT22;10704;42.678;23.288;2022-07-05T00:36:11;20.80;99.90
21092;DHT22;10704;42.678;23.288;2022-07-05T00:38:37;20.80;99.90
21092;DHT22;10704;42.678;23.288;2022-07-05T00:41:03;20.80;99.90
21092;DHT22;10704;42.678;23.288;2022-07-05T00:43:29;20.80;99.90
21092;DHT22;10704;42.678;23.288;2022-07-05T00:45:55;20.70;99.90
21092;DHT22;10704;42.678;23.288;2022-07-05T00:48:21;20.70;99.90
21092;DHT22;10704;42.678;23.288;2022-07-05T00:54:36;20.60;99.90
21092;DHT22;10704;42.678;23.288;2022-07-05T00:57:03;20.50;99.90
21092;DHT22;10704;42.678;23.288;2022-07-05T00:59:30;20.50;99.90
21092;DHT22;10704;42.678;23.288;2022-07-05T01:09:30;20.40;99.90
21092;DHT22;10704;42.678;23.288;2022-07-05T01:19:33;20.20;99.90
21092;DHT22;10704;42.678;23.288;2022-07-05T01:22:01;20.20;99.90
21092;DHT22;10704;42.678;23.288;2022-07-05T01:24:29;20.20;99.90
21092;DHT22;10704;42.678;23.288;2022-07-05T01:26:55;20.10;99.90
21092;DHT22;10704;42.678;23.288;2022-07-05T01:29:21;20.20;99.90
21092;DHT22;10704;42.678;23.288;2022-07-05T01:35:35;20.20;99.90
21092;DHT22;10704;42.678;23.288;2022-07-05T01:38:33;20.10;99.90
21092;DHT22;10704;42.678;23.288;2022-07-05T01:40:59;20.10;99.90
21092;DHT22;10704;42.678;23.288;2022-07-05T01:43:25;20.20;99.90
21092;DHT22;10704;42.678;23.288;2022-07-05T01:45:52;20.20;99.90
21092;DHT22;10704;42.678;23.288;2022-07-05T01:48:19;20.10;99.90
21092;DHT22;10704;42.678;23.288;2022-07-05T01:50:57;20.20;99.90
21092;DHT22;10704;42.678;23.288;2022-07-05T01:53:28;20.30;99.90
21092;DHT22;10704;42.678;23.288;2022-07-05T01:55:59;20.30;99.90
21092;DHT22;10704;42.678;23.288;2022-07-05T02:02:13;20.10;99.90
21092;DHT22;10704;42.678;23.288;2022-07-05T02:04:39;20.00;99.90
21092;DHT22;10704;42.678;23.288;2022-07-05T02:07:10;20.00;99.90
21092;DHT22;10704;42.678;23.288;2022-07-05T02:09:37;19.90;99.90
21092;DHT22;10704;42.678;23.288;2022-07-05T02:12:04;19.90;99.90
21092;DHT22;10704;42.678;23.288;2022-07-05T02:14:32;19.90;99.90
21092;DHT22;10704;42.678;23.288;2022-07-05T02:16:58;19.90;99.90
21092;DHT22;10704;42.678;23.288;2022-07-05T02:19:25;19.90;99.90
21092;DHT22;10704;42.678;23.288;2022-07-05T02:21:53;19.90;99.90
21092;DHT22;10704;42.678;23.288;2022-07-05T02:24:20;20.00;99.90
21092;DHT22;10704;42.678;23.288;2022-07-05T02:27:04;20.00;99.90
21092;DHT22;10704;42.678;23.288;2022-07-05T02:29:30;19.90;99.90
21092;DHT22;10704;42.678;23.288;2022-07-05T02:31:58;19.80;99.90
21092;DHT22;10704;42.678;23.288;2022-07-05T02:34:26;19.70;99.90
21092;DHT22;10704;42.678;23.288;2022-07-05T02:36:52;19.70;99.90
21092;DHT22;10704;42.678;23.288;2022-07-05T02:39:18;19.60;99.90
21092;DHT22;10704;42.678;23.288;2022-07-05T02:41:45;19.50;99.90
21092;DHT22;10704;42.678;23.288;2022-07-05T02:44:11;19.40;99.90
21092;DHT22;10704;42.678;23.288;2022-07-05T02:46:37;19.30;99.90
21092;DHT22;10704;42.678;23.288;2022-07-05T02:49:04;19.20;99.90
21092;DHT22;10704;42.678;23.288;2022-07-05T02:55:20;19.20;99.90
21092;DHT22;10704;42.678;23.288;2022-07-05T02:57:47;19.20;99.90
21092;DHT22;10704;42.678;23.288;2022-07-05T03:03:40;19.20;99.90
21092;DHT22;10704;42.678;23.288;2022-07-05T03:06:13;19.20;99.90
21092;DHT22;10704;42.678;23.288;2022-07-05T03:08:40;19.10;99.90
21092;DHT22;10704;42.678;23.288;2022-07-05T03:14:54;19.20;99.90
21092;DHT22;10704;42.678;23.288;2022-07-05T03:17:21;19.20;99.90
21092;DHT22;10704;42.678;23.288;2022-07-05T03:20:17;19.20;99.90
21092;DHT22;10704;42.678;23.288;2022-07-05T03:22:44;19.30;99.90
21092;DHT22;10704;42.678;23.288;2022-07-05T03:28:58;19.50;99.90
21092;DHT22;10704;42.678;23.288;2022-07-05T03:35:12;19.50;99.90
21092;DHT22;10704;42.678;23.288;2022-07-05T03:37:38;19.50;99.90
21092;DHT22;10704;42.678;23.288;2022-07-05T03:40:05;19.50;99.90
21092;DHT22;10704;42.678;23.288;2022-07-05T03:42:31;19.60;99.90
21092;DHT22;10704;42.678;23.288;2022-07-05T03:48:45;19.90;99.90
21092;DHT22;10704;42.678;23.288;2022-07-05T03:55:03;20.00;99.90
21092;DHT22;10704;42.678;23.288;2022-07-05T03:57:30;20.00;99.90
21092;DHT22;10704;42.678;23.288;2022-07-05T03:59:56;20.00;99.90
21092;DHT22;10704;42.678;23.288;2022-07-05T04:02:22;20.00;99.90
21092;DHT22;10704;42.678;23.288;2022-07-05T04:04:49;20.00;99.90
21092;DHT22;10704;42.678;23.288;2022-07-05T04:07:15;20.00;99.90
21092;DHT22;10704;42.678;23.288;2022-07-05T04:09:41;20.10;99.90
21092;DHT22;10704;42.678;23.288;2022-07-05T04:12:08;20.10;99.90
21092;DHT22;10704;42.678;23.288;2022-07-05T04:18:23;20.10;99.90
21092;DHT22;10704;42.678;23.288;2022-07-05T04:20:50;20.30;99.90
21092;DHT22;10704;42.678;23.288;2022-07-05T04:23:16;20.30;99.90
21092;DHT22;10704;42.678;23.288;2022-07-05T04:25:43;20.30;99.90
21092;DHT22;10704;42.678;23.288;2022-07-05T04:28:16;20.40;99.90
21092;DHT22;10704;42.678;23.288;2022-07-05T04:30:43;20.60;99.90
21092;DHT22;10704;42.678;23.288;2022-07-05T04:33:11;20.70;99.90
21092;DHT22;10704;42.678;23.288;2022-07-05T04:35:38;20.70;99.90
21092;DHT22;10704;42.678;23.288;2022-07-05T04:38:05;20.70;99.90
21092;DHT22;10704;42.678;23.288;2022-07-05T04:40:41;20.70;99.90
21092;DHT22;10704;42.678;23.288;2022-07-05T04:43:08;20.80;99.90
21092;DHT22;10704;42.678;23.288;2022-07-05T04:45:34;20.90;99.90
21092;DHT22;10704;42.678;23.288;2022-07-05T04:48:00;21.10;99.90
21092;DHT22;10704;42.678;23.288;2022-07-05T04:50:28;21.20;99.90
21092;DHT22;10704;42.678;23.288;2022-07-05T04:52:54;21.20;99.90
21092;DHT22;10704;42.678;23.288;2022-07-05T04:55:20;21.20;99.90
21092;DHT22;10704;42.678;23.288;2022-07-05T05:01:40;21.30;99.90
21092;DHT22;10704;42.678;23.288;2022-07-05T05:04:06;21.40;99.90
21092;DHT22;10704;42.678;23.288;2022-07-05T05:06:32;21.50;99.90
21092;DHT22;10704;42.678;23.288;2022-07-05T05:08:58;21.50;99.90
21092;DHT22;10704;42.678;23.288;2022-07-05T05:11:24;21.70;99.90
21092;DHT22;10704;42.678;23.288;2022-07-05T05:13:50;21.80;99.90
21092;DHT22;10704;42.678;23.288;2022-07-05T05:20:35;22.00;99.90
21092;DHT22;10704;42.678;23.288;2022-07-05T05:23:01;22.00;99.90
21092;DHT22;10704;42.678;23.288;2022-07-05T05:40:36;22.50;99.90
21092;DHT22;10704;42.678;23.288;2022-07-05T05:43:04;22.60;99.90
21092;DHT22;10704;42.678;23.288;2022-07-05T05:49:18;22.90;99.90
21092;DHT22;10704;42.678;23.288;2022-07-05T05:51:44;23.00;99.90
21092;DHT22;10704;42.678;23.288;2022-07-05T05:54:09;23.10;99.90
21092;DHT22;10704;42.678;23.288;2022-07-05T05:56:35;23.20;99.90
21092;DHT22;10704;42.678;23.288;2022-07-05T05:59:01;23.30;99.90
21092;DHT22;10704;42.678;23.288;2022-07-05T06:01:27;23.20;99.90
21092;DHT22;10704;42.678;23.288;2022-07-05T06:03:53;23.10;99.90
21092;DHT22;10704;42.678;23.288;2022-07-05T06:14:15;23.60;99.60
21092;DHT22;10704;42.678;23.288;2022-07-05T06:16:41;23.80;97.10
21092;DHT22;10704;42.678;23.288;2022-07-05T06:19:07;24.00;96.50
21092;DHT22;10704;42.678;23.288;2022-07-05T06:21:33;24.20;96.40
21092;DHT22;10704;42.678;23.288;2022-07-05T06:23:59;24.40;95.10
21092;DHT22;10704;42.678;23.288;2022-07-05T06:26:25;24.40;94.60
21092;DHT22;10704;42.678;23.288;2022-07-05T06:28:51;24.50;94.50
21092;DHT22;10704;42.678;23.288;2022-07-05T06:31:17;24.50;93.80
21092;DHT22;10704;42.678;23.288;2022-07-05T06:34:21;24.50;94.00
21092;DHT22;10704;42.678;23.288;2022-07-05T06:40:47;24.60;93.30
21092;DHT22;10704;42.678;23.288;2022-07-05T06:43:14;24.60;93.00
21092;DHT22;10704;42.678;23.288;2022-07-05T06:46:00;24.50;92.90
21092;DHT22;10704;42.678;23.288;2022-07-05T06:48:26;24.60;92.80
21092;DHT22;10704;42.678;23.288;2022-07-05T06:57:44;24.80;92.20
21092;DHT22;10704;42.678;23.288;2022-07-05T07:00:11;25.10;91.80
21092;DHT22;10704;42.678;23.288;2022-07-05T07:02:37;25.50;91.50
21092;DHT22;10704;42.678;23.288;2022-07-05T07:05:04;25.60;90.30
21092;DHT22;10704;42.678;23.288;2022-07-05T07:07:33;25.30;90.90
21092;DHT22;10704;42.678;23.288;2022-07-05T07:10:19;25.50;90.50
21092;DHT22;10704;42.678;23.288;2022-07-05T07:13:22;25.60;90.10
21092;DHT22;10704;42.678;23.288;2022-07-05T07:15:48;25.70;90.10
21092;DHT22;10704;42.678;23.288;2022-07-05T07:22:31;26.30;88.20
21092;DHT22;10704;42.678;23.288;2022-07-05T07:24:57;26.40;86.80
21092;DHT22;10704;42.678;23.288;2022-07-05T07:27:23;26.20;87.40
21092;DHT22;10704;42.678;23.288;2022-07-05T07:33:36;26.20;86.60
21092;DHT22;10704;42.678;23.288;2022-07-05T07:36:03;25.90;87.30
21092;DHT22;10704;42.678;23.288;2022-07-05T07:38:29;26.20;87.00
21092;DHT22;10704;42.678;23.288;2022-07-05T07:40:55;26.60;85.40
21092;DHT22;10704;42.678;23.288;2022-07-05T07:43:21;27.10;83.90
21092;DHT22;10704;42.678;23.288;2022-07-05T07:45:48;27.50;83.10
21092;DHT22;10704;42.678;23.288;2022-07-05T07:48:14;27.90;80.70
21092;DHT22;10704;42.678;23.288;2022-07-05T07:50:40;28.10;80.00
21092;DHT22;10704;42.678;23.288;2022-07-05T07:53:06;28.10;79.60
21092;DHT22;10704;42.678;23.288;2022-07-05T07:59:19;28.00;79.90
21092;DHT22;10704;42.678;23.288;2022-07-05T08:01:45;28.50;78.30
21092;DHT22;10704;42.678;23.288;2022-07-05T08:04:13;29.00;77.00
21092;DHT22;10704;42.678;23.288;2022-07-05T08:06:39;29.40;76.40
21092;DHT22;10704;42.678;23.288;2022-07-05T08:09:05;29.50;74.30
21092;DHT22;10704;42.678;23.288;2022-07-05T08:11:31;29.50;74.40
21092;DHT22;10704;42.678;23.288;2022-07-05T08:13:57;29.60;73.90
21092;DHT22;10704;42.678;23.288;2022-07-05T08:16:23;29.90;73.00
21092;DHT22;10704;42.678;23.288;2022-07-05T08:18:49;30.10;71.80
21092;DHT22;10704;42.678;23.288;2022-07-05T08:21:33;30.30;70.50
21092;DHT22;10704;42.678;23.288;2022-07-05T08:24:07;30.50;70.30
21092;DHT22;10704;42.678;23.288;2022-07-05T08:26:35;30.90;68.40
21092;DHT22;10704;42.678;23.288;2022-07-05T08:29:03;30.30;68.60
21092;DHT22;10704;42.678;23.288;2022-07-05T08:31:32;30.30;69.10
21092;DHT22;10704;42.678;23.288;2022-07-05T08:33:58;30.40;68.90
21092;DHT22;10704;42.678;23.288;2022-07-05T08:36:24;30.80;67.40
21092;DHT22;10704;42.678;23.288;2022-07-05T08:38:50;31.10;67.10
21092;DHT22;10704;42.678;23.288;2022-07-05T08:41:21;31.20;66.50
21092;DHT22;10704;42.678;23.288;2022-07-05T08:43:49;31.30;65.50
21092;DHT22;10704;42.678;23.288;2022-07-05T08:46:16;31.60;65.40
21092;DHT22;10704;42.678;23.288;2022-07-05T08:48:43;31.90;64.40
21092;DHT22;10704;42.678;23.288;2022-07-05T08:51:13;32.20;64.40
21092;DHT22;10704;42.678;23.288;2022-07-05T08:53:40;32.20;62.80
21092;DHT22;10704;42.678;23.288;2022-07-05T08:56:11;32.10;63.10
21092;DHT22;10704;42.678;23.288;2022-07-05T08:58:38;32.40;62.20
21092;DHT22;10704;42.678;23.288;2022-07-05T09:01:05;32.30;62.20
21092;DHT22;10704;42.678;23.288;2022-07-05T09:04:06;32.70;60.60
21092;DHT22;10704;42.678;23.288;2022-07-05T09:06:35;32.10;60.00
21092;DHT22;10704;42.678;23.288;2022-07-05T09:09:02;32.20;59.90
21092;DHT22;10704;42.678;23.288;2022-07-05T09:15:16;32.70;59.80
21092;DHT22;10704;42.678;23.288;2022-07-05T09:17:46;32.90;59.00
21092;DHT22;10704;42.678;23.288;2022-07-05T09:20:14;33.10;59.00
21092;DHT22;10704;42.678;23.288;2022-07-05T09:22:50;33.30;58.70
21092;DHT22;10704;42.678;23.288;2022-07-05T09:25:25;34.00;57.60
21092;DHT22;10704;42.678;23.288;2022-07-05T09:31:27;34.50;56.00
21092;DHT22;10704;42.678;23.288;2022-07-05T09:33:54;34.80;55.70
21092;DHT22;10704;42.678;23.288;2022-07-05T09:40:07;35.60;54.70
21092;DHT22;10704;42.678;23.288;2022-07-05T09:42:33;36.20;53.40
21092;DHT22;10704;42.678;23.288;2022-07-05T09:44:59;36.50;53.20
21092;DHT22;10704;42.678;23.288;2022-07-05T09:47:27;36.30;52.60
21092;DHT22;10704;42.678;23.288;2022-07-05T09:54:10;36.00;53.60
21092;DHT22;10704;42.678;23.288;2022-07-05T09:56:48;36.50;52.30
21092;DHT22;10704;42.678;23.288;2022-07-05T09:59:18;36.80;51.70
21092;DHT22;10704;42.678;23.288;2022-07-05T10:01:45;37.10;51.50
21092;DHT22;10704;42.678;23.288;2022-07-05T10:04:12;37.60;50.80
21092;DHT22;10704;42.678;23.288;2022-07-05T10:06:38;37.00;51.20
21092;DHT22;10704;42.678;23.288;2022-07-05T10:09:04;37.00;51.40
21092;DHT22;10704;42.678;23.288;2022-07-05T10:11:31;37.40;51.40
21092;DHT22;10704;42.678;23.288;2022-07-05T10:13:58;37.80;50.70
21092;DHT22;10704;42.678;23.288;2022-07-05T10:16:24;38.10;50.00
21092;DHT22;10704;42.678;23.288;2022-07-05T10:18:55;37.40;51.20
21092;DHT22;10704;42.678;23.288;2022-07-05T10:21:21;38.00;50.50
21092;DHT22;10704;42.678;23.288;2022-07-05T10:23:50;37.70;49.90
21092;DHT22;10704;42.678;23.288;2022-07-05T10:26:22;38.20;50.20
21092;DHT22;10704;42.678;23.288;2022-07-05T10:28:52;38.70;50.00
21092;DHT22;10704;42.678;23.288;2022-07-05T10:35:06;38.50;48.80
21092;DHT22;10704;42.678;23.288;2022-07-05T10:37:33;38.20;49.60
21092;DHT22;10704;42.678;23.288;2022-07-05T10:40:02;37.90;49.50
21092;DHT22;10704;42.678;23.288;2022-07-05T10:56:20;38.20;48.70
21092;DHT22;10704;42.678;23.288;2022-07-05T11:02:33;38.20;49.30
21092;DHT22;10704;42.678;23.288;2022-07-05T11:04:59;37.40;50.70
21092;DHT22;10704;42.678;23.288;2022-07-05T11:07:57;36.80;50.80
21092;DHT22;10704;42.678;23.288;2022-07-05T11:10:24;37.50;49.90
21092;DHT22;10704;42.678;23.288;2022-07-05T11:12:50;37.90;49.50
21092;DHT22;10704;42.678;23.288;2022-07-05T11:15:16;38.00;49.20
21092;DHT22;10704;42.678;23.288;2022-07-05T11:17:42;38.20;49.10
21092;DHT22;10704;42.678;23.288;2022-07-05T11:20:14;38.60;47.40
21092;DHT22;10704;42.678;23.288;2022-07-05T11:23:00;38.70;48.10
21092;DHT22;10704;42.678;23.288;2022-07-05T11:29:48;39.50;47.20
21092;DHT22;10704;42.678;23.288;2022-07-05T11:39:15;38.90;47.50
21092;DHT22;10704;42.678;23.288;2022-07-05T11:41:45;38.10;49.00
21092;DHT22;10704;42.678;23.288;2022-07-05T11:44:11;37.50;49.90
21092;DHT22;10704;42.678;23.288;2022-07-05T11:46:38;37.90;49.60
21092;DHT22;10704;42.678;23.288;2022-07-05T11:49:04;36.90;50.20
21092;DHT22;10704;42.678;23.288;2022-07-05T11:51:29;37.50;50.10
21092;DHT22;10704;42.678;23.288;2022-07-05T11:53:56;37.40;49.60
21092;DHT22;10704;42.678;23.288;2022-07-05T11:56:22;35.70;51.90
21092;DHT22;10704;42.678;23.288;2022-07-05T12:02:43;36.50;50.60
21092;DHT22;10704;42.678;23.288;2022-07-05T12:05:09;36.50;50.50
21092;DHT22;10704;42.678;23.288;2022-07-05T12:07:35;36.70;50.50
21092;DHT22;10704;42.678;23.288;2022-07-05T12:10:03;37.20;50.00
21092;DHT22;10704;42.678;23.288;2022-07-05T12:12:47;37.40;49.30
21092;DHT22;10704;42.678;23.288;2022-07-05T12:19:07;36.20;50.40
21092;DHT22;10704;42.678;23.288;2022-07-05T12:21:33;36.50;50.00
21092;DHT22;10704;42.678;23.288;2022-07-05T12:23:59;37.50;49.20
21092;DHT22;10704;42.678;23.288;2022-07-05T12:26:25;37.20;49.40
21092;DHT22;10704;42.678;23.288;2022-07-05T12:28:51;37.70;48.50
21092;DHT22;10704;42.678;23.288;2022-07-05T12:31:22;38.00;48.70
21092;DHT22;10704;42.678;23.288;2022-07-05T12:33:50;38.20;48.20
21092;DHT22;10704;42.678;23.288;2022-07-05T12:36:19;37.60;48.00
21092;DHT22;10704;42.678;23.288;2022-07-05T12:38:45;37.10;48.80
21092;DHT22;10704;42.678;23.288;2022-07-05T12:41:11;37.60;48.70
21092;DHT22;10704;42.678;23.288;2022-07-05T12:43:52;37.30;48.70
21092;DHT22;10704;42.678;23.288;2022-07-05T12:50:05;36.00;49.50
21092;DHT22;10704;42.678;23.288;2022-07-05T13:03:56;34.80;51.60
21092;DHT22;10704;42.678;23.288;2022-07-05T13:06:48;34.90;51.90
21092;DHT22;10704;42.678;23.288;2022-07-05T13:09:32;36.00;50.40
21092;DHT22;10704;42.678;23.288;2022-07-05T13:12:17;35.70;51.50
21092;DHT22;10704;42.678;23.288;2022-07-05T13:14:51;36.10;51.00
21092;DHT22;10704;42.678;23.288;2022-07-05T13:17:19;36.70;50.10
21092;DHT22;10704;42.678;23.288;2022-07-05T13:19:47;36.20;50.30
21092;DHT22;10704;42.678;23.288;2022-07-05T13:22:14;35.20;51.60
21092;DHT22;10704;42.678;23.288;2022-07-05T13:25:14;35.80;51.90
21092;DHT22;10704;42.678;23.288;2022-07-05T13:27:40;36.10;51.10
21092;DHT22;10704;42.678;23.288;2022-07-05T13:30:09;36.60;50.10
21092;DHT22;10704;42.678;23.288;2022-07-05T13:40:09;36.50;50.30
21092;DHT22;10704;42.678;23.288;2022-07-05T13:42:35;37.50;49.20
21092;DHT22;10704;42.678;23.288;2022-07-05T13:45:01;37.60;48.70
21092;DHT22;10704;42.678;23.288;2022-07-05T13:47:27;37.60;48.90
21092;DHT22;10704;42.678;23.288;2022-07-05T13:49:53;36.40;50.30
21092;DHT22;10704;42.678;23.288;2022-07-05T13:56:27;36.10;51.40
21092;DHT22;10704;42.678;23.288;2022-07-05T13:58:56;35.00;52.60
21092;DHT22;10704;42.678;23.288;2022-07-05T14:01:22;35.10;52.70
21092;DHT22;10704;42.678;23.288;2022-07-05T14:04:02;35.00;53.20
21092;DHT22;10704;42.678;23.288;2022-07-05T14:12:59;34.80;54.10
21092;DHT22;10704;42.678;23.288;2022-07-05T14:15:25;35.20;54.30
21092;DHT22;10704;42.678;23.288;2022-07-05T14:17:51;35.50;53.10
21092;DHT22;10704;42.678;23.288;2022-07-05T14:20:16;34.50;54.10
21092;DHT22;10704;42.678;23.288;2022-07-05T14:22:42;33.90;55.40
21092;DHT22;10704;42.678;23.288;2022-07-05T14:25:08;33.40;55.40
21092;DHT22;10704;42.678;23.288;2022-07-05T14:27:34;32.80;57.00
21092;DHT22;10704;42.678;23.288;2022-07-05T14:33:07;32.80;56.60
21092;DHT22;10704;42.678;23.288;2022-07-05T14:39:39;32.80;57.10
21092;DHT22;10704;42.678;23.288;2022-07-05T14:42:05;33.00;57.30
21092;DHT22;10704;42.678;23.288;2022-07-05T14:44:31;32.70;57.40
21092;DHT22;10704;42.678;23.288;2022-07-05T14:49:48;32.60;57.90
21092;DHT22;10704;42.678;23.288;2022-07-05T14:56:10;31.70;59.50
21092;DHT22;10704;42.678;23.288;2022-07-05T15:02:24;31.80;60.10
21092;DHT22;10704;42.678;23.288;2022-07-05T15:04:50;32.30;59.40
21092;DHT22;10704;42.678;23.288;2022-07-05T15:07:16;32.80;58.70
21092;DHT22;10704;42.678;23.288;2022-07-05T15:09:42;33.30;57.80
21092;DHT22;10704;42.678;23.288;2022-07-05T15:12:08;33.60;57.30
21092;DHT22;10704;42.678;23.288;2022-07-05T15:18:21;34.00;56.90
21092;DHT22;10704;42.678;23.288;2022-07-05T15:24:34;33.50;56.50
21092;DHT22;10704;42.678;23.288;2022-07-05T15:30:48;34.30;56.20
21092;DHT22;10704;42.678;23.288;2022-07-05T15:33:14;34.60;55.50
21092;DHT22;10704;42.678;23.288;2022-07-05T15:35:40;34.20;55.90
21092;DHT22;10704;42.678;23.288;2022-07-05T15:38:06;34.20;55.90
21092;DHT22;10704;42.678;23.288;2022-07-05T15:40:32;34.60;55.40
21092;DHT22;10704;42.678;23.288;2022-07-05T15:42:57;34.00;55.10
21092;DHT22;10704;42.678;23.288;2022-07-05T15:48:27;34.20;55.60
21092;DHT22;10704;42.678;23.288;2022-07-05T15:54:40;33.90;56.50
21092;DHT22;10704;42.678;23.288;2022-07-05T15:57:06;33.60;56.80
21092;DHT22;10704;42.678;23.288;2022-07-05T15:59:31;33.50;57.30
21092;DHT22;10704;42.678;23.288;2022-07-05T16:01:57;33.10;58.20
21092;DHT22;10704;42.678;23.288;2022-07-05T16:04:23;32.70;59.00
21092;DHT22;10704;42.678;23.288;2022-07-05T16:06:58;32.70;59.40
21092;DHT22;10704;42.678;23.288;2022-07-05T16:09:25;32.90;59.00
21092;DHT22;10704;42.678;23.288;2022-07-05T16:11:51;32.70;59.60
21092;DHT22;10704;42.678;23.288;2022-07-05T16:14:17;32.30;59.80
21092;DHT22;10704;42.678;23.288;2022-07-05T16:20:31;31.20;61.80
21092;DHT22;10704;42.678;23.288;2022-07-05T16:22:57;30.80;63.60
21092;DHT22;10704;42.678;23.288;2022-07-05T16:25:23;30.80;63.70
21092;DHT22;10704;42.678;23.288;2022-07-05T16:27:49;30.60;63.90
21092;DHT22;10704;42.678;23.288;2022-07-05T16:30:15;30.60;63.90
21092;DHT22;10704;42.678;23.288;2022-07-05T16:32:40;30.60;64.00
21092;DHT22;10704;42.678;23.288;2022-07-05T16:35:07;30.40;64.50
21092;DHT22;10704;42.678;23.288;2022-07-05T16:37:33;30.00;65.00
21092;DHT22;10704;42.678;23.288;2022-07-05T16:39:59;30.10;64.80
21092;DHT22;10704;42.678;23.288;2022-07-05T16:42:25;30.10;64.40
21092;DHT22;10704;42.678;23.288;2022-07-05T16:44:51;30.10;64.40
21092;DHT22;10704;42.678;23.288;2022-07-05T16:47:17;30.20;64.50
21092;DHT22;10704;42.678;23.288;2022-07-05T16:49:43;30.40;64.30
21092;DHT22;10704;42.678;23.288;2022-07-05T16:52:09;30.30;64.70
21092;DHT22;10704;42.678;23.288;2022-07-05T16:54:35;30.20;65.20
21092;DHT22;10704;42.678;23.288;2022-07-05T17:00:19;30.30;65.10
21092;DHT22;10704;42.678;23.288;2022-07-05T17:06:32;30.00;66.20
21092;DHT22;10704;42.678;23.288;2022-07-05T17:08:58;29.90;65.50
21092;DHT22;10704;42.678;23.288;2022-07-05T17:11:24;29.70;65.90
21092;DHT22;10704;42.678;23.288;2022-07-05T17:13:51;29.70;66.30
21092;DHT22;10704;42.678;23.288;2022-07-05T17:16:18;29.40;66.70
21092;DHT22;10704;42.678;23.288;2022-07-05T17:18:46;29.30;67.00
21092;DHT22;10704;42.678;23.288;2022-07-05T17:24:59;29.00;66.90
21092;DHT22;10704;42.678;23.288;2022-07-05T17:31:31;28.50;67.60
21092;DHT22;10704;42.678;23.288;2022-07-05T17:34:19;28.40;68.20
21092;DHT22;10704;42.678;23.288;2022-07-05T17:36:45;28.20;68.30
21092;DHT22;10704;42.678;23.288;2022-07-05T17:42:52;28.10;68.60
21092;DHT22;10704;42.678;23.288;2022-07-05T17:56:21;27.60;69.60
21092;DHT22;10704;42.678;23.288;2022-07-05T17:58:47;27.60;69.80
21092;DHT22;10704;42.678;23.288;2022-07-05T18:01:13;27.60;69.90
21092;DHT22;10704;42.678;23.288;2022-07-05T18:03:39;27.50;70.10
21092;DHT22;10704;42.678;23.288;2022-07-05T18:06:06;27.50;70.30
21092;DHT22;10704;42.678;23.288;2022-07-05T18:08:32;27.50;70.50
21092;DHT22;10704;42.678;23.288;2022-07-05T18:10:58;27.50;70.80
21092;DHT22;10704;42.678;23.288;2022-07-05T18:13:24;27.40;70.80
21092;DHT22;10704;42.678;23.288;2022-07-05T18:15:50;27.30;70.80
21092;DHT22;10704;42.678;23.288;2022-07-05T18:18:15;27.40;70.70
21092;DHT22;10704;42.678;23.288;2022-07-05T18:20:43;27.30;71.10
21092;DHT22;10704;42.678;23.288;2022-07-05T18:23:12;27.20;71.30
21092;DHT22;10704;42.678;23.288;2022-07-05T18:25:39;27.20;71.50
21092;DHT22;10704;42.678;23.288;2022-07-05T18:28:09;27.20;71.50
21092;DHT22;10704;42.678;23.288;2022-07-05T18:30:37;27.20;71.50
21092;DHT22;10704;42.678;23.288;2022-07-05T18:33:03;27.00;71.70
21092;DHT22;10704;42.678;23.288;2022-07-05T18:35:29;27.00;71.80
21092;DHT22;10704;42.678;23.288;2022-07-05T18:37:55;27.00;71.90
21092;DHT22;10704;42.678;23.288;2022-07-05T18:40:21;27.00;72.00
21092;DHT22;10704;42.678;23.288;2022-07-05T18:42:47;27.00;72.20
21092;DHT22;10704;42.678;23.288;2022-07-05T18:45:14;27.00;72.30
21092;DHT22;10704;42.678;23.288;2022-07-05T18:47:41;26.90;72.40
21092;DHT22;10704;42.678;23.288;2022-07-05T18:50:08;26.90;72.40
21092;DHT22;10704;42.678;23.288;2022-07-05T18:52:49;26.90;72.40
21092;DHT22;10704;42.678;23.288;2022-07-05T18:55:15;26.90;72.70
21092;DHT22;10704;42.678;23.288;2022-07-05T19:01:28;26.80;72.90
21092;DHT22;10704;42.678;23.288;2022-07-05T19:03:54;26.90;72.90
21092;DHT22;10704;42.678;23.288;2022-07-05T19:06:21;26.80;72.50
21092;DHT22;10704;42.678;23.288;2022-07-05T19:09:06;26.80;72.90
21092;DHT22;10704;42.678;23.288;2022-07-05T19:11:50;26.70;74.20
21092;DHT22;10704;42.678;23.288;2022-07-05T19:14:35;26.70;74.40
21092;DHT22;10704;42.678;23.288;2022-07-05T19:17:01;26.70;74.70
21092;DHT22;10704;42.678;23.288;2022-07-05T19:19:27;26.70;75.00
21092;DHT22;10704;42.678;23.288;2022-07-05T19:21:53;26.70;75.10
21092;DHT22;10704;42.678;23.288;2022-07-05T19:24:19;26.70;75.50
21092;DHT22;10704;42.678;23.288;2022-07-05T19:26:45;26.60;75.60
21092;DHT22;10704;42.678;23.288;2022-07-05T19:29:11;26.50;76.20
21092;DHT22;10704;42.678;23.288;2022-07-05T19:31:37;26.50;76.30
21092;DHT22;10704;42.678;23.288;2022-07-05T19:34:03;26.60;76.60
21092;DHT22;10704;42.678;23.288;2022-07-05T19:36:29;26.50;77.00
21092;DHT22;10704;42.678;23.288;2022-07-05T19:38:56;26.40;77.60
21092;DHT22;10704;42.678;23.288;2022-07-05T19:41:22;26.40;77.90
21092;DHT22;10704;42.678;23.288;2022-07-05T19:43:48;26.40;78.00
21092;DHT22;10704;42.678;23.288;2022-07-05T19:46:14;26.40;78.40
21092;DHT22;10704;42.678;23.288;2022-07-05T19:48:40;26.40;78.60
21092;DHT22;10704;42.678;23.288;2022-07-05T19:51:07;26.40;78.70
21092;DHT22;10704;42.678;23.288;2022-07-05T19:53:33;26.30;78.90
21092;DHT22;10704;42.678;23.288;2022-07-05T19:55:59;26.40;79.30
21092;DHT22;10704;42.678;23.288;2022-07-05T19:58:25;26.30;79.90
21092;DHT22;10704;42.678;23.288;2022-07-05T20:00:52;25.90;83.20
21092;DHT22;10704;42.678;23.288;2022-07-05T20:03:18;25.50;86.70
21092;DHT22;10704;42.678;23.288;2022-07-05T20:05:44;25.30;90.30
21092;DHT22;10704;42.678;23.288;2022-07-05T20:08:12;25.10;91.80
21092;DHT22;10704;42.678;23.288;2022-07-05T20:10:38;25.10;93.00
21092;DHT22;10704;42.678;23.288;2022-07-05T20:13:04;25.10;94.00